Terminal Aerodrome Forecast
Issued by NWS

Home | Current Version | Previous Version | Text Only | Print | Product List | Glossary On
Versions: 1 2 3 4 5 6 7 8 9 10 11 12 13
806
FTUS44 KLZK 272321
TAFPBF
TAF
KPBF 272321Z 2800/2824 33005KT P6SM VCSH SCT025 BKN080
      TEMPO 2800/2804 -SHRA BKN025
     FM280600 VRB03KT P6SM VCFG SCT100 SCT250
      TEMPO 2806/2810 5SM BR
     FM281000 24004KT 5SM BR SCT008 OVC100
      TEMPO 2810/2814 3SM BR
     FM281400 24006KT P6SM VCTS SCT060CB OVC100 PROB30 2817/2823 5SM
      -TSRA BR BKN025CB=

USA.gov is the U.S. government's official web portal to all federal, state and local government web resources and services.